createdAt,value
2017-12-29T00:01:20.180Z,960.33
2017-12-29T00:03:48.440Z,966.17
2017-12-29T00:06:15.986Z,972.57
2017-12-29T00:08:43.490Z,961.80
2017-12-29T00:11:11.743Z,932.47
2017-12-29T00:13:39.293Z,941.43
2017-12-29T00:16:06.822Z,945.03
2017-12-29T00:18:34.317Z,963.43
2017-12-29T00:21:01.878Z,972.10
2017-12-29T00:23:29.420Z,971.87
2017-12-29T00:25:56.914Z,976.63
2017-12-29T00:28:24.401Z,961.73
2017-12-29T00:30:51.922Z,920.57
2017-12-29T00:33:19.451Z,942.40
2017-12-29T00:35:47.706Z,950.07
2017-12-29T00:38:15.221Z,952.17
2017-12-29T00:40:42.732Z,962.53
2017-12-29T00:43:10.267Z,953.27
2017-12-29T00:45:37.774Z,960.63
2017-12-29T00:48:06.071Z,992.47
2017-12-29T00:50:34.365Z,1029.23
2017-12-29T00:53:01.868Z,1062.73
2017-12-29T00:55:29.391Z,1098.23
2017-12-29T00:57:56.889Z,1125.63
2017-12-29T01:00:24.420Z,1128.20
2017-12-29T01:02:51.921Z,1095.73
2017-12-29T01:05:19.442Z,1086.53
2017-12-29T01:07:46.991Z,1070.17
2017-12-29T01:10:15.246Z,1075.70
2017-12-29T01:12:42.750Z,1067.10
2017-12-29T01:15:10.293Z,1081.57
2017-12-29T01:17:38.563Z,1083.20
2017-12-29T01:20:06.066Z,1104.27
2017-12-29T01:22:33.598Z,1090.20
2017-12-29T01:25:01.849Z,1082.57
2017-12-29T01:27:29.336Z,1063.57
2017-12-29T01:29:57.631Z,1039.90
2017-12-29T01:32:25.881Z,1011.10
2017-12-29T01:34:53.432Z,985.87
2017-12-29T01:37:20.945Z,961.97
2017-12-29T01:39:48.507Z,935.83
2017-12-29T01:42:16.042Z,915.93
2017-12-29T01:44:43.525Z,903.10
2017-12-29T01:47:11.792Z,913.27
2017-12-29T01:49:40.202Z,916.37
2017-12-29T01:52:07.747Z,917.03
2017-12-29T01:54:36.002Z,904.90
2017-12-29T01:57:03.532Z,888.10
2017-12-29T01:59:31.121Z,906.13
2017-12-29T02:01:58.682Z,896.77
2017-12-29T02:04:26.203Z,909.47
2017-12-29T02:06:53.721Z,922.03
2017-12-29T02:09:21.203Z,933.17
2017-12-29T02:11:48.732Z,955.47
2017-12-29T02:14:16.218Z,964.80
2017-12-29T02:16:43.748Z,987.40
2017-12-29T02:19:11.239Z,998.67
2017-12-29T02:21:38.797Z,997.17
2017-12-29T02:24:06.298Z,992.87
2017-12-29T02:26:34.597Z,984.23
2017-12-29T02:29:02.102Z,1003.90
2017-12-29T02:31:29.638Z,970.23
2017-12-29T02:33:57.145Z,938.47
2017-12-29T02:36:24.630Z,929.93
2017-12-29T02:38:52.978Z,882.83
2017-12-29T02:41:20.449Z,855.00
2017-12-29T02:43:48.457Z,854.43
2017-12-29T02:46:16.038Z,831.20
2017-12-29T02:48:43.526Z,807.63
2017-12-29T02:51:11.015Z,796.93
2017-12-29T02:53:38.541Z,822.43
2017-12-29T02:56:06.032Z,782.40
2017-12-29T02:58:33.557Z,759.27
2017-12-29T03:01:01.053Z,783.90
2017-12-29T03:03:28.578Z,754.53
2017-12-29T03:05:56.112Z,765.47
2017-12-29T03:08:24.395Z,754.00
2017-12-29T03:10:52.665Z,772.30
2017-12-29T03:13:20.187Z,769.83
2017-12-29T03:15:47.713Z,744.87
2017-12-29T03:18:16.011Z,753.80
2017-12-29T03:20:43.502Z,755.70
2017-12-29T03:23:11.033Z,788.47
2017-12-29T03:25:38.522Z,823.03
2017-12-29T03:28:06.062Z,829.27
2017-12-29T03:30:33.549Z,813.87
2017-12-29T03:33:01.081Z,793.77
2017-12-29T03:35:28.561Z,827.57
2017-12-29T03:37:56.053Z,802.33
2017-12-29T03:40:23.577Z,810.70
2017-12-29T03:42:51.110Z,808.27
2017-12-29T03:45:19.386Z,801.53
2017-12-29T03:47:46.910Z,810.13
2017-12-29T03:50:14.437Z,782.47
2017-12-29T03:52:42.709Z,841.70
2017-12-29T03:55:10.957Z,895.17
2017-12-29T03:57:38.505Z,845.57
2017-12-29T04:00:06.005Z,865.00
2017-12-29T04:02:33.526Z,908.03
2017-12-29T04:05:01.019Z,875.47
2017-12-29T04:07:28.558Z,826.47
2017-12-29T04:09:56.049Z,845.40
2017-12-29T04:12:23.567Z,811.87
2017-12-29T04:14:51.068Z,842.27
2017-12-29T04:17:18.593Z,856.87
2017-12-29T04:19:46.102Z,841.57
2017-12-29T04:22:13.588Z,847.53
2017-12-29T04:24:41.877Z,827.00
2017-12-29T04:27:09.872Z,817.47
2017-12-29T04:29:37.413Z,826.97
2017-12-29T04:32:04.937Z,800.00
2017-12-29T04:34:32.505Z,770.13
2017-12-29T04:36:59.965Z,725.37
2017-12-29T04:39:27.497Z,684.70
2017-12-29T04:41:55.015Z,752.97
2017-12-29T04:44:23.278Z,780.40
2017-12-29T04:46:50.826Z,715.10
2017-12-29T04:49:18.313Z,730.03
2017-12-29T04:51:46.697Z,734.33
2017-12-29T04:54:14.255Z,754.40
2017-12-29T04:56:41.862Z,757.30
2017-12-29T04:59:09.395Z,782.67
2017-12-29T05:01:36.876Z,799.40
2017-12-29T05:04:05.133Z,770.87
2017-12-29T05:06:32.671Z,757.13
2017-12-29T05:09:00.932Z,748.57
2017-12-29T05:11:28.478Z,765.10
2017-12-29T05:13:56.030Z,824.23
2017-12-29T05:16:24.301Z,857.73
2017-12-29T05:18:52.601Z,870.43
2017-12-29T05:21:20.102Z,871.40
2017-12-29T05:23:47.657Z,904.37
2017-12-29T05:26:15.184Z,901.60
2017-12-29T05:28:43.449Z,910.80
2017-12-29T05:31:11.746Z,922.70
2017-12-29T05:33:39.306Z,936.73
2017-12-29T05:36:07.570Z,932.70
2017-12-29T05:38:35.887Z,952.73
2017-12-29T05:41:03.415Z,966.73
2017-12-29T05:43:31.671Z,926.33
2017-12-29T05:45:59.194Z,912.73
2017-12-29T05:48:26.682Z,920.43
2017-12-29T05:50:54.197Z,945.23
2017-12-29T05:53:22.459Z,1005.17
2017-12-29T05:55:49.987Z,1043.27
2017-12-29T05:58:17.488Z,1045.87
2017-12-29T06:00:45.026Z,994.80
2017-12-29T06:03:12.538Z,1005.67
2017-12-29T06:05:40.800Z,981.87
2017-12-29T06:08:09.094Z,1003.97
2017-12-29T06:10:37.365Z,974.03
2017-12-29T06:13:05.654Z,967.93
2017-12-29T06:15:33.910Z,984.23
2017-12-29T06:18:01.443Z,1000.80
2017-12-29T06:20:28.965Z,1025.50
2017-12-29T06:22:56.478Z,1035.70
2017-12-29T06:25:24.030Z,1041.47
2017-12-29T06:27:51.573Z,1045.20
2017-12-29T06:30:19.069Z,1032.90
2017-12-29T06:32:46.598Z,1029.50
2017-12-29T06:35:14.106Z,1036.50
2017-12-29T06:37:41.648Z,1015.13
2017-12-29T06:40:09.138Z,1044.87
2017-12-29T06:42:36.646Z,1031.97
2017-12-29T06:45:04.181Z,1026.50
2017-12-29T06:47:31.717Z,1054.70
2017-12-29T06:49:59.229Z,1038.77
2017-12-29T06:52:26.758Z,1029.93
2017-12-29T06:54:54.250Z,1016.57
2017-12-29T06:57:22.510Z,1043.63
2017-12-29T06:59:50.049Z,1051.20
2017-12-29T07:02:17.584Z,1073.77
2017-12-29T07:04:45.130Z,1077.33
2017-12-29T07:07:13.412Z,1071.50
2017-12-29T07:09:41.710Z,1078.60
2017-12-29T07:12:09.213Z,1074.67
2017-12-29T07:14:36.753Z,1105.60
2017-12-29T07:17:04.279Z,1107.17
2017-12-29T07:19:32.546Z,1083.87
2017-12-29T07:22:00.805Z,1088.17
2017-12-29T07:24:28.350Z,1083.10
2017-12-29T07:26:55.884Z,1091.83
2017-12-29T07:29:23.406Z,1122.80
2017-12-29T07:31:50.958Z,1124.33
2017-12-29T07:34:18.503Z,1119.67
2017-12-29T07:36:46.008Z,1090.20
2017-12-29T07:39:14.309Z,1060.73
2017-12-29T07:41:41.845Z,1024.93
2017-12-29T07:44:09.386Z,1011.53
2017-12-29T07:46:36.890Z,1009.97
2017-12-29T07:49:05.189Z,1010.23
2017-12-29T07:51:32.699Z,980.37
2017-12-29T07:54:00.225Z,972.40
2017-12-29T07:56:27.726Z,998.30
2017-12-29T07:58:55.234Z,1036.20
2017-12-29T08:01:22.774Z,1031.23
2017-12-29T08:03:50.269Z,1031.20
2017-12-29T08:06:17.858Z,983.43
2017-12-29T08:08:45.372Z,914.03
2017-12-29T08:11:13.665Z,871.03
2017-12-29T08:13:41.965Z,838.40
2017-12-29T08:16:09.482Z,699.87
2017-12-29T08:18:36.992Z,781.77
2017-12-29T08:21:04.495Z,708.40
2017-12-29T08:23:32.038Z,660.13
2017-12-29T08:25:59.542Z,767.10
2017-12-29T08:28:27.818Z,716.50
2017-12-29T08:30:55.365Z,712.40
2017-12-29T08:33:22.899Z,617.90
2017-12-29T08:35:50.409Z,656.73
2017-12-29T08:38:17.951Z,599.53
2017-12-29T08:40:45.488Z,559.40
2017-12-29T08:43:12.970Z,479.40
2017-12-29T08:45:40.518Z,346.27
2017-12-29T08:48:08.077Z,243.67
2017-12-29T08:50:35.567Z,138.07
2017-12-29T08:53:03.088Z,98.30
2017-12-29T08:55:30.670Z,87.77
2017-12-29T08:57:58.156Z,81.87
2017-12-29T09:00:25.635Z,80.07
2017-12-29T09:02:53.185Z,83.70
2017-12-29T09:05:20.691Z,76.70
2017-12-29T09:07:48.953Z,71.67
2017-12-29T09:10:16.478Z,77.40
2017-12-29T09:12:43.971Z,68.87
2017-12-29T09:15:11.450Z,72.67
2017-12-29T09:17:38.966Z,70.70
2017-12-29T09:20:06.498Z,70.93
2017-12-29T09:22:34.014Z,70.27
2017-12-29T09:25:01.535Z,67.30
2017-12-29T09:27:29.024Z,66.10
2017-12-29T09:29:56.555Z,66.40
2017-12-29T09:32:24.040Z,64.40
2017-12-29T09:34:51.524Z,63.90
2017-12-29T09:37:19.053Z,65.77
2017-12-29T09:39:46.546Z,61.87
2017-12-29T09:42:14.089Z,62.77
2017-12-29T09:44:41.605Z,62.97
2017-12-29T09:47:09.307Z,63.23
2017-12-29T09:49:36.829Z,64.03
2017-12-29T09:52:04.365Z,63.20
2017-12-29T09:54:31.846Z,61.20
2017-12-29T09:56:59.341Z,64.97
2017-12-29T09:59:27.629Z,62.10
2017-12-29T10:01:56.019Z,62.43
2017-12-29T10:04:23.543Z,62.57
2017-12-29T10:06:51.063Z,62.70
2017-12-29T10:09:18.581Z,64.27
2017-12-29T10:11:46.062Z,64.77
2017-12-29T10:14:14.345Z,67.80
2017-12-29T10:16:41.846Z,69.13
2017-12-29T10:19:09.372Z,63.20
2017-12-29T10:21:37.658Z,67.30
2017-12-29T10:24:05.906Z,66.07
2017-12-29T10:26:33.390Z,68.40
2017-12-29T10:29:01.673Z,63.80
2017-12-29T10:31:29.931Z,65.93
2017-12-29T10:33:57.433Z,64.60
2017-12-29T10:36:24.928Z,64.57
2017-12-29T10:38:52.476Z,62.87
2017-12-29T10:41:19.970Z,64.60
2017-12-29T10:43:48.134Z,64.40
2017-12-29T10:46:16.458Z,60.27
2017-12-29T10:48:44.746Z,62.30
2017-12-29T10:51:13.065Z,62.57
2017-12-29T10:53:40.589Z,61.57
2017-12-29T10:56:08.842Z,62.17
2017-12-29T10:58:36.336Z,62.33
2017-12-29T11:01:03.877Z,62.10
2017-12-29T11:03:31.398Z,61.83
2017-12-29T11:05:58.882Z,60.00
2017-12-29T11:08:26.371Z,64.30
2017-12-29T11:10:54.677Z,58.40
2017-12-29T11:13:22.201Z,61.40
2017-12-29T11:15:49.694Z,58.93
2017-12-29T11:18:18.081Z,60.80
2017-12-29T11:20:46.363Z,59.40
2017-12-29T11:23:14.619Z,59.97
2017-12-29T11:25:42.158Z,64.97
2017-12-29T11:28:09.713Z,63.27
2017-12-29T11:30:37.182Z,59.30
2017-12-29T11:33:04.701Z,59.00
2017-12-29T11:35:32.202Z,61.50
2017-12-29T11:37:59.710Z,61.00
2017-12-29T11:40:28.021Z,58.67
2017-12-29T11:42:55.533Z,63.60
2017-12-29T11:45:23.029Z,59.97
2017-12-29T11:47:51.334Z,61.40
2017-12-29T11:50:18.823Z,66.97
2017-12-29T11:52:46.333Z,58.90
2017-12-29T11:55:14.619Z,58.80
2017-12-29T11:57:42.914Z,58.37
2017-12-29T12:00:10.400Z,60.47
2017-12-29T12:02:37.926Z,60.50
2017-12-29T12:05:06.188Z,59.00
2017-12-29T12:07:33.714Z,63.27
2017-12-29T12:10:01.223Z,58.80
2017-12-29T12:12:29.489Z,64.00
2017-12-29T12:14:56.995Z,59.87
2017-12-29T12:17:24.489Z,60.33
2017-12-29T12:19:52.107Z,60.37
2017-12-29T12:22:20.357Z,59.07
2017-12-29T12:24:47.839Z,59.07
2017-12-29T12:27:16.120Z,59.97
2017-12-29T12:29:44.407Z,61.67
2017-12-29T12:32:12.653Z,58.40
2017-12-29T12:34:40.169Z,61.57
2017-12-29T12:37:07.663Z,62.40
2017-12-29T12:39:35.169Z,60.07
2017-12-29T12:42:03.413Z,59.47
2017-12-29T12:44:30.935Z,58.77
2017-12-29T12:46:58.426Z,60.70
2017-12-29T12:49:25.947Z,60.47
2017-12-29T12:51:54.193Z,61.00
2017-12-29T12:54:21.678Z,58.50
2017-12-29T12:56:49.194Z,59.50
2017-12-29T12:59:16.714Z,59.17
2017-12-29T13:01:45.008Z,59.47
2017-12-29T13:04:12.486Z,59.83
2017-12-29T13:06:39.997Z,59.80
2017-12-29T13:09:07.520Z,60.10
2017-12-29T13:11:35.042Z,60.20
2017-12-29T13:14:03.321Z,60.40
2017-12-29T13:16:31.596Z,59.83
2017-12-29T13:18:59.081Z,59.97
2017-12-29T13:21:26.580Z,60.27
2017-12-29T13:23:54.110Z,60.77
2017-12-29T13:26:21.631Z,61.57
2017-12-29T13:28:49.101Z,63.20
2017-12-29T13:31:16.589Z,61.17
2017-12-29T13:33:44.884Z,60.33
2017-12-29T13:36:12.372Z,62.10
2017-12-29T13:38:39.878Z,60.73
2017-12-29T13:41:07.402Z,61.40
2017-12-29T13:43:34.890Z,62.03
2017-12-29T13:46:02.419Z,60.17
2017-12-29T13:48:29.901Z,60.67
2017-12-29T13:50:57.374Z,61.30
2017-12-29T13:53:24.878Z,60.50
2017-12-29T13:55:53.126Z,63.07
2017-12-29T13:58:20.647Z,61.10
2017-12-29T14:00:48.143Z,60.40
2017-12-29T14:03:15.660Z,66.27
2017-12-29T14:05:43.197Z,63.80
2017-12-29T14:08:11.491Z,63.80
2017-12-29T14:10:39.741Z,67.40
2017-12-29T14:13:07.229Z,101.17
2017-12-29T14:15:35.529Z,432.13
2017-12-29T14:18:03.021Z,112.97
2017-12-29T14:20:30.551Z,147.87
2017-12-29T14:22:58.095Z,154.07
2017-12-29T14:25:25.554Z,127.30
2017-12-29T14:27:53.849Z,219.37
2017-12-29T14:30:22.147Z,77.73
2017-12-29T14:32:49.653Z,65.83
2017-12-29T14:35:17.637Z,65.90
2017-12-29T14:37:45.141Z,65.70
2017-12-29T14:40:12.683Z,67.73
2017-12-29T14:42:41.447Z,68.77
2017-12-29T14:45:09.005Z,64.90
2017-12-29T14:47:36.485Z,65.27
2017-12-29T14:50:04.048Z,67.40
2017-12-29T14:52:32.357Z,65.50
2017-12-29T14:55:00.619Z,66.77
2017-12-29T14:57:28.130Z,66.37
2017-12-29T14:59:55.617Z,62.77
2017-12-29T15:02:23.150Z,65.67
2017-12-29T15:04:50.638Z,64.80
2017-12-29T15:07:18.174Z,66.90
2017-12-29T15:09:45.674Z,66.37
2017-12-29T15:12:13.194Z,64.93
2017-12-29T15:14:40.691Z,66.50
2017-12-29T15:17:08.209Z,65.57
2017-12-29T15:19:35.741Z,64.90
2017-12-29T15:22:03.244Z,65.87
2017-12-29T15:24:30.750Z,65.00
2017-12-29T15:26:58.286Z,70.30
2017-12-29T15:29:25.784Z,69.37
2017-12-29T15:31:53.271Z,69.00
2017-12-29T15:34:20.799Z,66.30
2017-12-29T15:36:48.275Z,72.57
2017-12-29T15:39:15.792Z,65.97
2017-12-29T15:41:43.276Z,70.20
2017-12-29T15:44:10.756Z,70.07
2017-12-29T15:46:38.288Z,68.43
2017-12-29T15:49:05.807Z,68.57
2017-12-29T15:51:34.214Z,77.73
2017-12-29T15:54:02.502Z,68.77
2017-12-29T15:56:29.994Z,69.10
2017-12-29T15:58:57.515Z,71.30
2017-12-29T16:01:31.432Z,75.60
2017-12-29T16:03:58.989Z,71.00
2017-12-29T16:06:27.276Z,73.07
2017-12-29T16:08:55.549Z,68.17
2017-12-29T16:11:23.834Z,69.10
2017-12-29T16:13:52.105Z,69.70
2017-12-29T16:16:20.395Z,68.47
2017-12-29T16:18:48.652Z,73.77
2017-12-29T16:21:16.177Z,70.47
2017-12-29T16:23:43.702Z,69.90
2017-12-29T16:26:12.009Z,72.63
2017-12-29T16:28:39.499Z,67.33
2017-12-29T16:31:06.994Z,107.80
2017-12-29T16:33:34.544Z,70.30
2017-12-29T16:36:02.037Z,67.10
2017-12-29T16:38:30.318Z,69.50
2017-12-29T16:40:57.853Z,71.37
2017-12-29T16:43:25.335Z,70.33
2017-12-29T16:45:53.627Z,66.10
2017-12-29T16:48:21.926Z,68.30
2017-12-29T16:50:49.409Z,70.77
2017-12-29T16:53:16.938Z,66.90
2017-12-29T16:55:44.422Z,72.97
2017-12-29T16:58:11.943Z,73.20
2017-12-29T17:00:39.426Z,66.37
2017-12-29T17:03:07.730Z,67.27
2017-12-29T17:05:35.214Z,69.73
2017-12-29T17:08:02.692Z,66.63
2017-12-29T17:10:30.254Z,68.23
2017-12-29T17:12:57.770Z,68.50
2017-12-29T17:15:25.290Z,69.07
2017-12-29T17:17:52.778Z,69.83
2017-12-29T17:20:21.076Z,74.60
2017-12-29T17:22:48.639Z,76.97
2017-12-29T17:25:16.162Z,82.00
2017-12-29T17:27:43.681Z,80.67
2017-12-29T17:30:11.159Z,81.00
2017-12-29T17:32:38.642Z,81.07
2017-12-29T17:35:06.218Z,89.40
2017-12-29T17:37:33.735Z,97.93
2017-12-29T17:40:01.248Z,104.30
2017-12-29T17:42:28.749Z,92.23
2017-12-29T17:44:56.221Z,108.23
2017-12-29T17:47:23.749Z,127.53
2017-12-29T17:49:51.994Z,99.50
2017-12-29T17:52:19.548Z,114.80
2017-12-29T17:54:47.073Z,144.67
2017-12-29T17:57:14.558Z,141.43
2017-12-29T17:59:42.046Z,145.10
2017-12-29T18:02:09.594Z,165.77
2017-12-29T18:04:37.085Z,177.13
2017-12-29T18:07:04.603Z,149.67
2017-12-29T18:09:32.164Z,171.13
2017-12-29T18:11:59.661Z,174.87
2017-12-29T18:14:27.206Z,180.33
2017-12-29T18:16:54.841Z,216.13
2017-12-29T18:19:23.093Z,263.60
2017-12-29T18:21:50.614Z,247.03
2017-12-29T18:24:18.137Z,291.87
2017-12-29T18:26:46.394Z,290.77
2017-12-29T18:29:13.906Z,257.00
2017-12-29T18:31:41.413Z,280.63
2017-12-29T18:34:08.961Z,278.50
2017-12-29T18:36:36.462Z,298.60
2017-12-29T18:39:03.963Z,295.47
2017-12-29T18:41:31.498Z,326.17
2017-12-29T18:43:59.799Z,307.40
2017-12-29T18:46:27.288Z,331.23
2017-12-29T18:48:54.812Z,308.30
2017-12-29T18:51:23.077Z,237.33
2017-12-29T18:53:51.373Z,250.07
2017-12-29T18:56:19.636Z,205.83
2017-12-29T18:58:47.131Z,175.10
2017-12-29T19:01:14.654Z,173.03
2017-12-29T19:03:42.172Z,147.40
2017-12-29T19:06:09.661Z,176.20
2017-12-29T19:08:37.154Z,195.20
2017-12-29T19:11:04.675Z,179.33
2017-12-29T19:13:32.179Z,226.20
2017-12-29T19:15:59.698Z,304.00
2017-12-29T19:18:27.182Z,404.30
2017-12-29T19:20:54.715Z,482.50
2017-12-29T19:23:22.251Z,495.63
2017-12-29T19:25:50.509Z,544.57
2017-12-29T19:28:18.055Z,591.00
2017-12-29T19:30:45.541Z,612.13
2017-12-29T19:33:13.038Z,651.87
2017-12-29T19:35:40.570Z,676.17
2017-12-29T19:38:08.059Z,689.40
2017-12-29T19:40:35.548Z,727.37
2017-12-29T19:43:03.102Z,744.57
2017-12-29T19:45:30.641Z,762.40
2017-12-29T19:47:58.931Z,766.60
2017-12-29T19:50:26.457Z,787.03
2017-12-29T19:52:53.993Z,767.30
2017-12-29T19:55:21.488Z,814.57
2017-12-29T19:57:49.036Z,800.63
2017-12-29T20:00:16.526Z,824.33
2017-12-29T20:02:44.801Z,830.77
2017-12-29T20:05:12.337Z,810.30
2017-12-29T20:07:39.850Z,828.40
2017-12-29T20:10:08.146Z,843.33
2017-12-29T20:12:35.635Z,846.13
2017-12-29T20:15:03.179Z,830.47
2017-12-29T20:17:30.677Z,859.43
2017-12-29T20:19:58.185Z,850.33
2017-12-29T20:22:25.705Z,866.20
2017-12-29T20:24:53.225Z,857.10
2017-12-29T20:27:20.728Z,861.53
2017-12-29T20:29:48.250Z,853.70
2017-12-29T20:32:15.786Z,855.13
2017-12-29T20:34:44.082Z,843.93
2017-12-29T20:37:11.568Z,921.30
2017-12-29T20:39:39.108Z,892.83
2017-12-29T20:42:07.402Z,908.10
2017-12-29T20:44:34.934Z,919.87
2017-12-29T20:47:02.438Z,910.47
2017-12-29T20:49:29.965Z,916.57
2017-12-29T20:51:58.268Z,930.23
2017-12-29T20:54:25.757Z,949.40
2017-12-29T20:56:53.239Z,949.00
2017-12-29T20:59:20.782Z,965.83
2017-12-29T21:01:48.271Z,983.50
2017-12-29T21:04:15.812Z,994.50
2017-12-29T21:06:43.352Z,988.27
2017-12-29T21:09:10.897Z,990.47
2017-12-29T21:11:39.174Z,1018.60
2017-12-29T21:14:07.499Z,1033.50
2017-12-29T21:16:35.039Z,1050.20
2017-12-29T21:19:02.542Z,1053.93
2017-12-29T21:21:30.043Z,1041.30
2017-12-29T21:23:58.353Z,1032.63
2017-12-29T21:26:25.888Z,1032.83
2017-12-29T21:28:54.146Z,1025.63
2017-12-29T21:31:21.645Z,1002.57
2017-12-29T21:33:49.207Z,1004.27
2017-12-29T21:36:16.733Z,1003.13
2017-12-29T21:38:44.263Z,985.50
2017-12-29T21:41:11.754Z,1008.57
2017-12-29T21:43:39.300Z,1026.57
2017-12-29T21:46:06.786Z,1015.30
2017-12-29T21:48:34.345Z,1023.57
2017-12-29T21:51:01.901Z,1049.83
2017-12-29T21:53:29.390Z,1038.07
2017-12-29T21:55:56.997Z,1047.10
2017-12-29T21:58:24.494Z,1049.67
2017-12-29T22:00:52.033Z,1024.43
2017-12-29T22:03:19.518Z,1064.13
2017-12-29T22:05:48.691Z,1027.07
2017-12-29T22:08:16.190Z,1046.00
2017-12-29T22:10:43.689Z,1037.07
2017-12-29T22:13:11.994Z,1064.47
2017-12-29T22:15:39.565Z,1058.33
2017-12-29T22:18:07.093Z,1141.17
2017-12-29T22:20:34.620Z,1116.30
2017-12-29T22:23:02.148Z,1082.57
2017-12-29T22:25:29.689Z,1066.23
2017-12-29T22:27:57.957Z,1088.80
2017-12-29T22:30:25.498Z,1149.87
2017-12-29T22:32:52.986Z,1252.77
2017-12-29T22:35:20.522Z,1122.93
2017-12-29T22:37:48.046Z,1135.23
2017-12-29T22:40:15.568Z,1128.23
2017-12-29T22:42:43.061Z,1247.10
2017-12-29T22:45:10.607Z,1162.00
2017-12-29T22:47:38.148Z,1207.47
2017-12-29T22:50:05.666Z,1226.30
2017-12-29T22:52:33.206Z,1171.57
2017-12-29T22:55:01.505Z,1243.60
2017-12-29T22:57:29.018Z,1348.50
2017-12-29T22:59:56.521Z,1188.17
2017-12-29T23:02:24.829Z,1201.77
2017-12-29T23:04:52.341Z,1227.80
2017-12-29T23:07:19.891Z,1493.60
2017-12-29T23:09:47.387Z,1225.43
2017-12-29T23:12:15.705Z,1286.97
2017-12-29T23:14:43.209Z,1216.20
2017-12-29T23:17:10.736Z,1231.37
2017-12-29T23:19:38.285Z,1260.63
2017-12-29T23:22:05.787Z,1256.07
2017-12-29T23:24:33.355Z,1269.70
2017-12-29T23:27:00.863Z,1268.80
2017-12-29T23:29:28.393Z,1281.43
2017-12-29T23:31:55.898Z,1297.20
2017-12-29T23:34:23.398Z,1299.87
2017-12-29T23:36:50.924Z,1271.40
2017-12-29T23:39:18.488Z,1380.40
2017-12-29T23:41:45.966Z,1348.90
2017-12-29T23:44:13.456Z,1309.87
2017-12-29T23:46:40.972Z,1272.60
2017-12-29T23:49:08.493Z,1289.03
2017-12-29T23:51:35.989Z,1289.73
2017-12-29T23:54:04.272Z,1292.83
2017-12-29T23:56:32.587Z,1286.73
2017-12-29T23:59:00.111Z,1306.33
